createdAt,value
2016-05-15T17:17:59.097Z,10.73
2016-05-15T17:18:11.815Z,10.68
2016-05-15T17:19:12.005Z,10.67
2016-05-15T17:20:12.462Z,10.64
2016-05-15T17:21:11.870Z,10.63
2016-05-15T17:22:11.514Z,10.61
2016-05-15T17:23:11.657Z,10.61
2016-05-15T17:24:11.816Z,10.41
2016-05-15T17:25:12.053Z,10.44
2016-05-15T17:26:11.697Z,10.41
2016-05-15T17:27:11.871Z,10.33
2016-05-15T17:28:11.889Z,10.27
2016-05-15T17:29:11.674Z,10.33
2016-05-15T17:30:26.332Z,10.2
2016-05-15T17:31:11.882Z,10.27
2016-05-15T17:32:11.385Z,10.17
2016-05-15T17:33:11.855Z,10.18
2016-05-15T17:34:11.843Z,10.12
2016-05-15T17:36:11.879Z,10.15
2016-05-15T17:37:11.429Z,10.18
2016-05-15T17:38:26.604Z,10.18
2016-05-15T17:39:12.137Z,10.11
2016-05-15T17:40:12.062Z,10.2
2016-05-15T17:41:11.940Z,10.22
2016-05-15T17:42:11.880Z,10.09
2016-05-15T17:43:11.758Z,10.23
2016-05-15T17:44:11.885Z,10.14
2016-05-15T17:45:11.717Z,10.12
2016-05-15T17:46:12.078Z,10.02
2016-05-15T17:47:12.081Z,10.02
2016-05-15T17:48:11.911Z,10.02
2016-05-15T17:49:26.009Z,9.94
2016-05-15T17:50:11.901Z,9.84
2016-05-15T17:51:12.139Z,9.81
2016-05-15T17:52:11.922Z,9.79
2016-05-15T17:53:11.894Z,9.75
2016-05-15T17:54:11.756Z,9.71
2016-05-15T17:55:11.931Z,9.75
2016-05-15T17:57:11.952Z,9.66
2016-05-15T17:58:12.188Z,9.61
2016-05-15T17:59:26.238Z,9.57
2016-05-15T18:00:11.975Z,9.48
2016-05-15T18:01:11.916Z,9.53
2016-05-15T18:02:12.137Z,9.42
2016-05-15T18:03:11.921Z,9.39
2016-05-15T18:04:11.939Z,9.39
2016-05-15T18:05:11.941Z,9.4
2016-05-15T18:06:11.944Z,9.33
2016-05-15T18:07:11.932Z,9.29
2016-05-15T18:08:12.168Z,9.28
2016-05-15T18:09:11.968Z,9.29
2016-05-15T18:10:11.971Z,9.26
2016-05-15T18:11:11.943Z,9.21
2016-05-15T18:12:11.960Z,9.21
2016-05-15T18:13:11.792Z,9.14
2016-05-15T18:14:11.794Z,9.23
2016-05-15T18:15:11.968Z,9.24
2016-05-15T18:16:11.987Z,9.17
2016-05-15T18:17:11.990Z,9.1
2016-05-15T18:18:11.961Z,9.11
2016-05-15T18:19:12.151Z,9.14
2016-05-15T18:20:12.014Z,9.02
2016-05-15T18:21:11.828Z,8.95
2016-05-15T18:22:11.956Z,8.96
2016-05-15T18:23:26.069Z,8.98
2016-05-15T18:24:11.665Z,9.04
2016-05-15T18:25:12.792Z,8.89
2016-05-15T18:26:11.857Z,8.96
2016-05-15T18:27:26.048Z,8.79
2016-05-15T18:28:12.175Z,8.81
2016-05-15T18:29:12.022Z,8.81
2016-05-15T18:30:11.977Z,8.79
2016-05-15T18:31:11.856Z,8.77
2016-05-15T18:32:11.702Z,8.63
2016-05-15T18:33:12.017Z,8.65
2016-05-15T18:34:11.988Z,8.68
2016-05-15T18:35:25.664Z,8.53
2016-05-15T18:36:11.853Z,8.55
2016-05-15T18:37:12.185Z,8.47
2016-05-15T18:38:11.968Z,8.48
2016-05-15T18:40:12.004Z,8.52
2016-05-15T18:41:12.196Z,8.48
2016-05-15T18:42:12.010Z,8.38
2016-05-15T18:43:12.215Z,8.45
2016-05-15T18:44:12.032Z,8.4
2016-05-15T18:45:12.253Z,8.4
2016-05-15T18:46:12.209Z,8.34
2016-05-15T18:47:11.993Z,8.37
2016-05-15T18:48:11.995Z,8.36
2016-05-15T18:50:12.453Z,8.33
2016-05-15T18:51:12.050Z,8.33
2016-05-15T18:53:12.039Z,8.37
2016-05-15T18:54:12.198Z,8.22
2016-05-15T18:55:12.014Z,8.26
2016-05-15T18:56:12.017Z,8.18
2016-05-15T18:57:12.222Z,8.19
2016-05-15T18:58:12.208Z,8.2
2016-05-15T18:59:26.321Z,8.2
2016-05-15T19:00:12.044Z,8.19
2016-05-15T19:01:11.905Z,8.16
2016-05-15T19:03:12.019Z,8.16
2016-05-15T19:04:12.022Z,8.15
2016-05-15T19:05:12.025Z,8.11
2016-05-15T19:06:12.685Z,8.15
2016-05-15T19:07:12.093Z,8.12
2016-05-15T19:08:12.251Z,8.11
2016-05-15T19:09:11.552Z,8.11
2016-05-15T19:10:12.023Z,8.08
2016-05-15T19:11:12.026Z,8.08
2016-05-15T19:12:12.029Z,8.05
2016-05-15T19:13:12.218Z,8.07
2016-05-15T19:14:12.049Z,8.05
2016-05-15T19:15:12.005Z,8.08
2016-05-15T19:16:12.023Z,8.12
2016-05-15T19:17:12.010Z,8.05
2016-05-15T19:18:12.045Z,8.08
2016-05-15T19:19:12.062Z,8.12
2016-05-15T19:20:26.331Z,8.08
2016-05-15T19:21:12.083Z,8.19
2016-05-15T19:22:12.070Z,8.18
2016-05-15T19:23:12.433Z,8.15
2016-05-15T19:24:12.076Z,8.19
2016-05-15T19:25:12.048Z,8.16
2016-05-15T19:27:12.022Z,8.19
2016-05-15T19:28:26.134Z,8.08
2016-05-15T19:29:12.417Z,8.15
2016-05-15T19:30:11.858Z,8.15
2016-05-15T19:31:12.017Z,8.12
2016-05-15T19:32:12.019Z,8.19
2016-05-15T19:33:12.038Z,8.2
2016-05-15T19:34:12.055Z,8.18
2016-05-15T19:35:12.497Z,8.18
2016-05-15T19:36:12.061Z,8.2
2016-05-15T19:37:12.268Z,8.22
2016-05-15T19:38:12.035Z,8.18
2016-05-15T19:39:11.866Z,8.18
2016-05-15T19:40:12.041Z,8.18
2016-05-15T19:41:12.043Z,8.12
2016-05-15T19:42:11.907Z,8.12
2016-05-15T19:43:12.080Z,8.12
2016-05-15T19:44:12.223Z,8.08
2016-05-15T19:45:12.024Z,8.15
2016-05-15T19:46:12.027Z,8.01
2016-05-15T19:47:12.013Z,7.97
2016-05-15T19:48:12.015Z,8
2016-05-15T19:49:12.456Z,8.04
2016-05-15T19:50:11.990Z,8
2016-05-15T19:51:12.040Z,7.89
2016-05-15T19:52:11.870Z,7.86
2016-05-15T19:53:12.263Z,7.9
2016-05-15T19:54:12.235Z,7.95
2016-05-15T19:55:12.487Z,7.79
2016-05-15T19:56:12.084Z,7.83
2016-05-15T19:57:11.572Z,7.95
2016-05-15T19:58:12.027Z,7.85
2016-05-15T19:59:11.889Z,7.82
2016-05-15T20:00:11.891Z,7.83
2016-05-15T20:01:12.253Z,7.85
2016-05-15T20:02:11.881Z,7.86
2016-05-15T20:03:15.025Z,7.83
2016-05-15T20:04:12.059Z,7.82
2016-05-15T20:05:12.030Z,7.82
2016-05-15T20:06:12.252Z,7.83
2016-05-15T20:07:12.051Z,7.72
2016-05-15T20:08:12.054Z,7.79
2016-05-15T20:10:26.310Z,7.74
2016-05-15T20:11:12.078Z,7.67
2016-05-15T20:12:12.018Z,7.64
2016-05-15T20:13:12.020Z,7.67
2016-05-15T20:14:12.101Z,7.61
2016-05-15T20:15:12.042Z,7.63
2016-05-15T20:16:12.513Z,7.63
2016-05-15T20:17:12.250Z,7.58
2016-05-15T20:18:12.534Z,7.63
2016-05-15T20:19:12.240Z,7.58
2016-05-15T20:20:11.867Z,7.57
2016-05-15T20:21:12.042Z,7.55
2016-05-15T20:22:12.029Z,7.52
2016-05-15T20:23:12.235Z,7.55
2016-05-15T20:24:11.737Z,7.52
2016-05-15T20:25:12.131Z,7.52
2016-05-15T20:26:12.025Z,7.58
2016-05-15T20:27:12.042Z,7.53
2016-05-15T20:28:12.030Z,7.58
2016-05-15T20:29:12.047Z,7.6
2016-05-15T20:30:12.020Z,7.61
2016-05-15T20:31:12.210Z,7.55
2016-05-15T20:32:12.025Z,7.58
2016-05-15T20:33:11.871Z,7.57
2016-05-15T20:34:12.014Z,7.55
2016-05-15T20:35:11.861Z,7.6
2016-05-15T20:36:12.052Z,7.57
2016-05-15T20:37:12.022Z,7.55
2016-05-15T20:38:12.057Z,7.57
2016-05-15T20:39:12.278Z,7.61
2016-05-15T20:40:12.047Z,7.6
2016-05-15T20:41:12.283Z,7.5
2016-05-15T20:42:12.051Z,7.58
2016-05-15T20:43:12.039Z,7.6
2016-05-15T20:44:26.291Z,7.61
2016-05-15T20:45:12.216Z,7.58
2016-05-15T20:46:12.047Z,7.55
2016-05-15T20:47:12.237Z,7.5
2016-05-15T20:48:11.879Z,7.58
2016-05-15T20:49:12.039Z,7.61
2016-05-15T20:50:12.371Z,7.5
2016-05-15T20:51:12.029Z,7.55
2016-05-15T20:52:11.876Z,7.57
2016-05-15T20:53:11.893Z,7.58
2016-05-15T20:54:12.006Z,7.61
2016-05-15T20:55:12.056Z,7.6
2016-05-15T20:56:12.042Z,7.53
2016-05-15T20:57:12.248Z,7.52
2016-05-15T20:58:12.219Z,7.6
2016-05-15T20:59:12.004Z,7.52
2016-05-15T21:00:12.023Z,7.48
2016-05-15T21:01:12.025Z,7.53
2016-05-15T21:02:12.012Z,7.48
2016-05-15T21:03:12.030Z,7.46
2016-05-15T21:04:12.220Z,7.39
2016-05-15T21:05:12.066Z,7.43
2016-05-15T21:06:12.210Z,7.39
2016-05-15T21:07:11.541Z,7.37
2016-05-15T21:08:11.544Z,7.34
2016-05-15T21:09:12.046Z,7.37
2016-05-15T21:10:12.064Z,7.24
2016-05-15T21:11:12.021Z,7.32
2016-05-15T21:12:12.054Z,7.21
2016-05-15T21:13:12.057Z,7.24
2016-05-15T21:14:12.012Z,7.28
2016-05-15T21:15:12.094Z,7.23
2016-05-15T21:16:12.066Z,7.17
2016-05-15T21:17:12.693Z,7.15
2016-05-15T21:18:12.007Z,7.17
2016-05-15T21:19:12.026Z,7.23
2016-05-15T21:20:12.404Z,7.13
2016-05-15T21:21:26.328Z,7.09
2016-05-15T21:22:12.237Z,7.13
2016-05-15T21:23:12.021Z,7.05
2016-05-15T21:24:12.243Z,7.03
2016-05-15T21:25:12.026Z,7.03
